Time;durP1;ratioP1;P1;durP2;ratioP2;P2;SDS_P1;SDS_P2;PMS_P1;PMS_P2;Temp;Humidity;BMP_temperature;BMP_pressure;BME280_temperature;BME280_humidity;BME280_pressure;Samples;Min_cycle;Max_cycle;Signal;HPM_P1;HPM_P2
2023/04/07 00:01:31;;;;;;;45.25;31.38;;;10.90;99.90;;;;;;5035800;28;20021;-74
2023/04/07 00:03:57;;;;;;;61.13;40.28;;;10.90;99.90;;;;;;5037658;28;20025;-75
2023/04/07 00:06:22;;;;;;;52.97;36.78;;;10.80;99.90;;;;;;5035775;28;20037;-77
2023/04/07 00:08:50;;;;;;;57.67;37.53;;;10.70;99.90;;;;;;5032443;28;20024;-76
2023/04/07 00:11:15;;;;;;;49.17;32.58;;;10.70;99.90;;;;;;5043762;28;20025;-76
2023/04/07 00:13:41;;;;;;;52.28;35.53;;;10.70;99.90;;;;;;5031469;28;20036;-77
2023/04/07 00:16:08;;;;;;;42.35;30.65;;;10.70;99.90;;;;;;5036354;28;20106;-77
2023/04/07 00:18:33;;;;;;;51.67;34.38;;;10.60;99.90;;;;;;5044743;28;20053;-78
2023/04/07 00:20:59;;;;;;;51.38;30.70;;;10.70;99.90;;;;;;5045192;28;20036;-77
2023/04/07 00:23:27;;;;;;;50.00;32.92;;;10.70;99.90;;;;;;5037609;28;20018;-77
2023/04/07 00:25:53;;;;;;;44.80;28.60;;;10.70;99.90;;;;;;5036537;28;20048;-77
2023/04/07 00:28:18;;;;;;;40.20;25.42;;;10.60;99.90;;;;;;5044029;28;20025;-77
2023/04/07 00:30:44;;;;;;;42.65;27.10;;;10.70;99.90;;;;;;5039469;28;20033;-76
2023/04/07 00:33:09;;;;;;;37.50;23.45;;;10.70;99.90;;;;;;5041007;28;20033;-76
2023/04/07 00:35:35;;;;;;;36.38;22.50;;;10.70;99.90;;;;;;5038125;28;20103;-77
2023/04/07 00:38:01;;;;;;;43.97;28.15;;;10.70;99.90;;;;;;5041284;28;20025;-77
2023/04/07 00:40:27;;;;;;;32.75;19.65;;;10.70;99.90;;;;;;5037621;28;20104;-77
2023/04/07 00:42:52;;;;;;;41.08;24.98;;;10.70;99.90;;;;;;5043659;28;20535;-77
2023/04/07 00:45:18;;;;;;;35.97;22.35;;;10.70;99.90;;;;;;5043859;28;20032;-78
2023/04/07 00:47:45;;;;;;;37.33;24.33;;;10.70;99.90;;;;;;5041808;28;20041;-78
2023/04/07 00:50:11;;;;;;;38.85;26.27;;;10.70;99.90;;;;;;5036398;28;20479;-78
2023/04/07 00:52:38;;;;;;;42.55;25.80;;;10.60;99.90;;;;;;5035759;28;20017;-77
2023/04/07 00:55:05;;;;;;;42.97;28.15;;;10.60;99.90;;;;;;5040864;28;20675;-77
2023/04/07 00:57:31;;;;;;;36.75;23.27;;;10.60;99.90;;;;;;5035512;28;20013;-78
2023/04/07 00:59:57;;;;;;;45.50;26.63;;;10.60;99.90;;;;;;5039509;28;20024;-78
2023/04/07 01:02:49;;;;;;;41.65;26.05;;;10.60;99.90;;;;;;5037236;28;20036;-76
2023/04/07 01:05:37;;;;;;;37.58;22.92;;;10.60;99.90;;;;;;5028142;28;20062;-77
2023/04/07 01:08:20;;;;;;;41.33;24.95;;;10.60;99.90;;;;;;5040889;28;20025;-78
2023/04/07 01:11:04;;;;;;;40.78;23.75;;;10.50;99.90;;;;;;5033876;28;20392;-79
2023/04/07 01:13:35;;;;;;;35.13;21.75;;;10.50;99.90;;;;;;5032717;28;20029;-77
2023/04/07 01:16:07;;;;;;;35.38;21.60;;;10.60;99.90;;;;;;5038136;28;20039;-77
2023/04/07 01:18:35;;;;;;;36.05;20.75;;;10.60;99.90;;;;;;5035672;28;20426;-79
2023/04/07 01:21:14;;;;;;;25.75;16.38;;;10.50;99.90;;;;;;5041069;28;20028;-77
2023/04/07 01:24:05;;;;;;;29.08;15.35;;;10.50;99.90;;;;;;5039995;28;20030;-78
2023/04/07 01:26:32;;;;;;;29.73;17.48;;;10.50;99.90;;;;;;5039069;28;20044;-78
2023/04/07 01:29:34;;;;;;;34.63;18.52;;;10.50;99.90;;;;;;5036662;28;20026;-77
2023/04/07 01:32:02;;;;;;;35.38;20.67;;;10.50;99.90;;;;;;5035801;28;20108;-76
2023/04/07 01:34:30;;;;;;;30.38;19.52;;;10.50;99.90;;;;;;5039868;28;20033;-76
2023/04/07 01:36:57;;;;;;;27.25;14.18;;;10.50;99.90;;;;;;5038955;28;20387;-77
2023/04/07 01:39:25;;;;;;;30.40;16.77;;;10.60;99.90;;;;;;5035840;28;20053;-76
2023/04/07 01:41:52;;;;;;;26.02;13.50;;;10.60;99.90;;;;;;5038133;28;20075;-76
2023/04/07 01:44:18;;;;;;;34.13;18.33;;;10.70;99.90;;;;;;5039614;28;20506;-77
2023/04/07 01:46:44;;;;;;;35.83;20.10;;;10.60;99.90;;;;;;5039897;28;21637;-76
2023/04/07 01:49:12;;;;;;;43.88;21.20;;;10.60;99.90;;;;;;5037518;28;20017;-76
2023/04/07 01:51:39;;;;;;;34.58;19.75;;;10.60;99.90;;;;;;5046303;28;20098;-76
2023/04/07 01:54:05;;;;;;;33.47;18.25;;;10.50;99.90;;;;;;5034817;28;20099;-77
2023/04/07 01:56:31;;;;;;;33.28;18.88;;;10.50;99.90;;;;;;5039844;28;20036;-76
2023/04/07 01:58:56;;;;;;;28.17;16.67;;;10.50;99.90;;;;;;5033421;28;20025;-79
2023/04/07 02:01:22;;;;;;;28.05;16.92;;;10.50;99.90;;;;;;5038746;28;20033;-77
2023/04/07 02:04:03;;;;;;;34.17;18.35;;;10.50;99.90;;;;;;5035668;28;20060;-78
2023/04/07 02:06:33;;;;;;;40.70;22.23;;;10.40;99.90;;;;;;5035235;28;20049;-77
2023/04/07 02:09:05;;;;;;;32.85;20.35;;;10.40;99.90;;;;;;5036352;28;20832;-77
2023/04/07 02:11:33;;;;;;;41.88;21.00;;;10.30;99.90;;;;;;5035056;28;20025;-78
2023/04/07 02:14:01;;;;;;;39.15;21.25;;;10.30;99.90;;;;;;5037904;28;20026;-78
2023/04/07 02:16:30;;;;;;;34.58;18.60;;;10.20;99.90;;;;;;5039570;28;20043;-78
2023/04/07 02:18:56;;;;;;;43.83;23.02;;;10.20;99.90;;;;;;5030766;28;20579;-78
2023/04/07 02:21:23;;;;;;;34.17;18.02;;;10.20;99.90;;;;;;5043154;28;20728;-78
2023/04/07 02:23:50;;;;;;;35.80;20.58;;;10.20;99.90;;;;;;5040919;28;20269;-76
2023/04/07 02:26:16;;;;;;;39.45;19.95;;;10.20;99.90;;;;;;5036027;28;20053;-78
2023/04/07 02:28:41;;;;;;;31.52;17.58;;;10.20;99.90;;;;;;5033110;28;20030;-76
2023/04/07 02:31:07;;;;;;;28.67;16.42;;;10.20;99.90;;;;;;5024020;28;20065;-76
2023/04/07 02:33:33;;;;;;;29.27;15.18;;;10.20;99.90;;;;;;5038065;28;20092;-75
2023/04/07 02:35:58;;;;;;;34.72;19.67;;;10.20;99.90;;;;;;5037046;28;20103;-76
2023/04/07 02:38:24;;;;;;;32.42;17.35;;;10.20;99.90;;;;;;5035249;28;20061;-78
2023/04/07 02:40:50;;;;;;;34.90;19.00;;;10.30;99.90;;;;;;5040830;28;20044;-77
2023/04/07 02:43:17;;;;;;;34.13;18.50;;;10.30;99.90;;;;;;5040459;28;20028;-77
2023/04/07 02:45:43;;;;;;;31.10;18.00;;;10.30;99.90;;;;;;5035526;28;20506;-78
2023/04/07 02:48:09;;;;;;;30.83;18.35;;;10.30;99.90;;;;;;5029687;28;20018;-78
2023/04/07 02:50:34;;;;;;;35.10;19.77;;;10.30;99.90;;;;;;5037066;28;20045;-77
2023/04/07 02:53:00;;;;;;;36.45;19.50;;;10.30;99.90;;;;;;5041255;28;20104;-76
2023/04/07 02:55:26;;;;;;;26.23;14.85;;;10.30;99.90;;;;;;5033680;28;20099;-76
2023/04/07 02:57:51;;;;;;;26.27;15.35;;;10.40;99.90;;;;;;5035340;28;20498;-77
2023/04/07 03:00:17;;;;;;;35.08;19.55;;;10.40;99.90;;;;;;5032029;28;20029;-77
2023/04/07 03:02:43;;;;;;;27.98;16.05;;;10.40;99.90;;;;;;5039094;28;20487;-77
2023/04/07 03:05:08;;;;;;;31.33;17.98;;;10.50;99.90;;;;;;5038044;28;20032;-76
2023/04/07 03:07:34;;;;;;;29.60;14.23;;;10.50;99.90;;;;;;5037517;28;20033;-77
2023/04/07 03:10:00;;;;;;;33.40;18.60;;;10.50;99.90;;;;;;5035777;28;20033;-76
2023/04/07 03:12:25;;;;;;;39.40;21.08;;;10.40;99.90;;;;;;5035696;28;20024;-77
2023/04/07 03:14:51;;;;;;;32.25;18.40;;;10.40;99.90;;;;;;5034595;28;20056;-76
2023/04/07 03:17:17;;;;;;;25.80;14.48;;;10.30;99.90;;;;;;5031648;28;20059;-76
2023/04/07 03:19:44;;;;;;;22.40;14.23;;;10.30;99.90;;;;;;5038577;28;20049;-78
2023/04/07 03:22:10;;;;;;;33.30;18.55;;;10.30;99.90;;;;;;5039230;28;20071;-78
2023/04/07 03:24:38;;;;;;;43.70;18.38;;;10.30;99.90;;;;;;5036244;28;20021;-76
2023/04/07 03:27:04;;;;;;;36.65;20.17;;;10.30;99.90;;;;;;5034309;28;20579;-78
2023/04/07 03:29:29;;;;;;;37.88;18.92;;;10.30;99.90;;;;;;5038846;28;20144;-78
2023/04/07 03:31:55;;;;;;;33.05;18.98;;;10.30;99.90;;;;;;5035243;28;20021;-77
2023/04/07 03:34:21;;;;;;;26.27;14.70;;;10.40;99.90;;;;;;5034834;28;20525;-77
2023/04/07 03:36:47;;;;;;;32.63;17.85;;;10.40;99.90;;;;;;5033983;28;20424;-76
2023/04/07 03:39:12;;;;;;;33.30;20.00;;;10.40;99.90;;;;;;5030312;28;20033;-77
2023/04/07 03:41:38;;;;;;;28.83;16.95;;;10.40;99.90;;;;;;5033710;28;20036;-77
2023/04/07 03:44:04;;;;;;;34.33;18.65;;;10.40;99.90;;;;;;5039909;28;20022;-79
2023/04/07 03:46:30;;;;;;;36.38;17.65;;;10.40;99.90;;;;;;5033356;28;20043;-77
2023/04/07 03:48:55;;;;;;;37.72;20.75;;;10.40;99.90;;;;;;5033903;28;20033;-77
2023/04/07 03:51:21;;;;;;;33.65;17.98;;;10.40;99.90;;;;;;5037707;28;20035;-76
2023/04/07 03:53:47;;;;;;;43.55;20.45;;;10.40;99.90;;;;;;5033714;28;20025;-77
2023/04/07 03:56:12;;;;;;;40.72;20.98;;;10.40;99.90;;;;;;5035525;28;20039;-77
2023/04/07 03:58:41;;;;;;;33.95;19.88;;;10.40;99.90;;;;;;5037493;28;20070;-78
2023/04/07 04:01:07;;;;;;;34.72;20.00;;;10.40;99.90;;;;;;5032756;28;21764;-76
2023/04/07 04:03:33;;;;;;;41.22;21.58;;;10.40;99.90;;;;;;5034611;28;20033;-76
2023/04/07 04:05:59;;;;;;;38.67;21.08;;;10.50;99.90;;;;;;5040495;28;20029;-77
2023/04/07 04:08:24;;;;;;;44.33;21.15;;;10.50;99.90;;;;;;5033072;28;20035;-77
2023/04/07 04:10:51;;;;;;;43.75;24.60;;;10.50;99.90;;;;;;5039829;28;20059;-77
2023/04/07 04:13:16;;;;;;;42.13;22.25;;;10.50;99.90;;;;;;5041431;28;20120;-77
2023/04/07 04:15:42;;;;;;;40.53;21.77;;;10.50;99.90;;;;;;5039428;28;20494;-77
2023/04/07 04:18:08;;;;;;;24.95;13.85;;;10.60;99.90;;;;;;5035273;28;20556;-77
2023/04/07 04:20:33;;;;;;;42.30;24.83;;;10.60;99.90;;;;;;5034821;28;20032;-75
2023/04/07 04:22:59;;;;;;;43.78;25.55;;;10.60;99.90;;;;;;5034173;28;20028;-76
2023/04/07 04:25:25;;;;;;;34.75;21.20;;;10.60;99.90;;;;;;5033771;28;20446;-77
2023/04/07 04:27:51;;;;;;;49.53;24.75;;;10.60;99.90;;;;;;5037207;28;20083;-76
2023/04/07 04:30:16;;;;;;;41.38;21.77;;;10.60;99.90;;;;;;5035291;28;20032;-76
2023/04/07 04:32:42;;;;;;;37.30;22.50;;;10.50;99.90;;;;;;5040448;28;20452;-77
2023/04/07 04:35:08;;;;;;;44.42;23.88;;;10.60;99.90;;;;;;5036110;28;20030;-79
2023/04/07 04:37:34;;;;;;;40.60;23.35;;;10.60;99.90;;;;;;5040325;28;20109;-77
2023/04/07 04:40:00;;;;;;;39.30;21.48;;;10.60;99.90;;;;;;5033428;28;20530;-78
2023/04/07 04:42:26;;;;;;;43.53;24.85;;;10.60;99.90;;;;;;5037478;28;20088;-78
2023/04/07 04:44:52;;;;;;;35.67;22.33;;;10.60;99.90;;;;;;5038852;28;20021;-76
2023/04/07 04:47:18;;;;;;;38.83;23.08;;;10.60;99.90;;;;;;5041915;28;20487;-78
2023/04/07 04:49:44;;;;;;;38.03;22.20;;;10.60;99.90;;;;;;5036380;28;20029;-78
2023/04/07 04:52:10;;;;;;;36.50;21.45;;;10.60;99.90;;;;;;5035096;28;20117;-76
2023/04/07 04:54:35;;;;;;;37.55;21.40;;;10.60;99.90;;;;;;5044390;28;20027;-79
2023/04/07 04:57:01;;;;;;;40.42;23.13;;;10.50;99.90;;;;;;5035148;28;20029;-78
2023/04/07 04:59:27;;;;;;;34.72;19.90;;;10.50;99.90;;;;;;5039948;28;20108;-78
2023/04/07 05:01:52;;;;;;;33.85;18.48;;;10.50;99.90;;;;;;5035896;28;20056;-77
2023/04/07 05:04:18;;;;;;;38.08;20.35;;;10.50;99.90;;;;;;5036388;28;20104;-79
2023/04/07 05:06:44;;;;;;;36.17;20.83;;;10.50;99.90;;;;;;5038571;28;20087;-78
2023/04/07 05:09:10;;;;;;;35.85;18.45;;;10.50;99.90;;;;;;5036021;28;20059;-78
2023/04/07 05:11:36;;;;;;;36.85;19.17;;;10.50;99.90;;;;;;5043051;28;20029;-77
2023/04/07 05:14:02;;;;;;;34.90;17.85;;;10.50;99.90;;;;;;5038186;28;20443;-77
2023/04/07 05:16:27;;;;;;;38.90;21.70;;;10.50;99.90;;;;;;5040870;28;20026;-77
2023/04/07 05:18:53;;;;;;;37.15;20.90;;;10.50;99.90;;;;;;5036570;28;20214;-78
2023/04/07 05:21:20;;;;;;;38.67;19.77;;;10.50;99.90;;;;;;5042736;28;20026;-78
2023/04/07 05:23:46;;;;;;;38.83;18.45;;;10.50;99.90;;;;;;5044768;28;20033;-78
2023/04/07 05:26:12;;;;;;;34.33;16.92;;;10.40;99.90;;;;;;5038380;28;20079;-78
2023/04/07 05:28:37;;;;;;;35.28;18.17;;;10.40;99.90;;;;;;5040261;28;20059;-79
2023/04/07 05:31:03;;;;;;;36.22;19.77;;;10.40;99.90;;;;;;5043049;28;20546;-78
2023/04/07 05:33:29;;;;;;;32.60;18.25;;;10.50;99.90;;;;;;5044191;28;20024;-78
2023/04/07 05:35:55;;;;;;;29.05;16.85;;;10.50;99.90;;;;;;5042902;28;20040;-78
2023/04/07 05:38:20;;;;;;;42.72;18.90;;;10.60;99.90;;;;;;5040959;28;20064;-77
2023/04/07 05:40:46;;;;;;;29.13;15.27;;;10.60;99.90;;;;;;5041073;28;20040;-76
2023/04/07 05:43:11;;;;;;;29.00;17.92;;;10.50;99.90;;;;;;5036622;28;20052;-77
2023/04/07 05:45:37;;;;;;;28.10;16.73;;;10.50;99.90;;;;;;5041535;28;20036;-77
2023/04/07 05:48:03;;;;;;;26.35;15.95;;;10.50;99.90;;;;;;5039001;28;20036;-77
2023/04/07 05:50:31;;;;;;;32.95;18.80;;;10.60;99.90;;;;;;5037234;28;20350;-78
2023/04/07 05:52:57;;;;;;;35.20;18.67;;;10.60;99.90;;;;;;5033451;28;20037;-77
2023/04/07 05:55:22;;;;;;;41.15;19.45;;;10.60;99.90;;;;;;5035572;28;20036;-77
2023/04/07 05:57:48;;;;;;;38.92;18.38;;;10.60;99.90;;;;;;5036313;28;20514;-76
2023/04/07 06:00:14;;;;;;;34.83;18.17;;;10.60;99.90;;;;;;5034066;28;20056;-77
2023/04/07 06:02:40;;;;;;;32.13;17.10;;;10.60;99.90;;;;;;5044423;28;20032;-76
2023/04/07 06:05:06;;;;;;;40.63;19.17;;;10.50;99.90;;;;;;5042305;28;20079;-77
2023/04/07 06:07:32;;;;;;;35.60;19.95;;;10.50;99.90;;;;;;5035781;28;20041;-79
2023/04/07 06:09:57;;;;;;;39.70;21.55;;;10.50;99.90;;;;;;5037541;28;20025;-77
2023/04/07 06:12:23;;;;;;;42.88;21.85;;;10.50;99.90;;;;;;5035188;28;20065;-79
2023/04/07 06:14:53;;;;;;;35.55;19.25;;;10.60;99.90;;;;;;5034659;28;20151;-77
2023/04/07 06:17:19;;;;;;;;;;;10.60;99.90;;;;;;5037247;28;20104;-77
2023/04/07 06:19:45;;;;;;;34.22;17.90;;;10.70;99.90;;;;;;5036416;28;20036;-77
2023/04/07 06:22:10;;;;;;;29.35;17.25;;;10.70;99.90;;;;;;5034733;28;20108;-78
2023/04/07 06:24:36;;;;;;;32.22;18.98;;;10.60;99.90;;;;;;5039561;28;20701;-77
2023/04/07 06:27:02;;;;;;;35.10;19.05;;;10.70;99.90;;;;;;5035810;28;20439;-78
2023/04/07 06:29:29;;;;;;;28.85;16.38;;;10.60;99.90;;;;;;5041040;28;20483;-76
2023/04/07 06:31:56;;;;;;;32.42;18.42;;;10.60;99.90;;;;;;5034366;28;20130;-77
2023/04/07 06:34:21;;;;;;;33.80;16.98;;;10.60;99.90;;;;;;5037939;28;20060;-78
2023/04/07 06:36:47;;;;;;;23.73;15.13;;;10.60;99.90;;;;;;5036197;28;20033;-77
2023/04/07 06:39:13;;;;;;;35.88;17.05;;;10.60;99.90;;;;;;5030883;28;20025;-76
2023/04/07 06:41:41;;;;;;;32.35;16.55;;;10.70;99.90;;;;;;5033185;28;20021;-77
2023/04/07 06:44:09;;;;;;;33.15;15.63;;;10.70;99.90;;;;;;5030461;28;20017;-77
2023/04/07 06:46:35;;;;;;;31.70;14.05;;;10.70;99.90;;;;;;5035508;28;20040;-76
2023/04/07 06:49:01;;;;;;;39.45;16.23;;;10.70;99.90;;;;;;5031363;28;20049;-76
2023/04/07 06:51:26;;;;;;;27.40;13.60;;;10.70;99.90;;;;;;5039298;28;20094;-77
2023/04/07 06:53:52;;;;;;;20.05;10.93;;;10.70;99.90;;;;;;5033739;28;20029;-77
2023/04/07 06:56:18;;;;;;;17.88;10.55;;;10.70;99.90;;;;;;5035673;28;20017;-76
2023/04/07 06:58:43;;;;;;;15.05;10.20;;;10.80;99.90;;;;;;5033666;28;20031;-76
2023/04/07 07:01:09;;;;;;;20.05;10.52;;;10.80;99.90;;;;;;5036520;28;20028;-77
2023/04/07 07:03:37;;;;;;;13.40;4.88;;;10.80;99.90;;;;;;5032297;28;20109;-76
2023/04/07 07:06:03;;;;;;;27.83;11.43;;;10.90;99.90;;;;;;5040713;28;20037;-77
2023/04/07 07:08:29;;;;;;;19.73;10.38;;;10.90;99.90;;;;;;5034341;28;20038;-77
2023/04/07 07:10:56;;;;;;;19.38;8.32;;;10.90;99.90;;;;;;5033425;28;20045;-76
2023/04/07 07:13:24;;;;;;;20.25;11.05;;;10.90;99.90;;;;;;5036617;28;20036;-76
2023/04/07 07:15:50;;;;;;;23.92;12.95;;;10.90;99.90;;;;;;5032650;28;20368;-76
2023/04/07 07:18:16;;;;;;;24.08;11.50;;;10.90;99.90;;;;;;5038464;28;20049;-75
2023/04/07 07:20:42;;;;;;;24.35;15.18;;;10.90;99.90;;;;;;5033771;28;20036;-76
2023/04/07 07:23:08;;;;;;;20.25;9.65;;;10.90;99.90;;;;;;5037318;28;20029;-77
2023/04/07 07:25:34;;;;;;;19.05;10.23;;;10.90;99.90;;;;;;5038721;28;20017;-78
2023/04/07 07:28:00;;;;;;;26.58;16.23;;;10.90;99.90;;;;;;5038614;28;20163;-77
2023/04/07 07:30:25;;;;;;;28.20;16.13;;;10.90;99.90;;;;;;5036979;28;20096;-76
2023/04/07 07:32:52;;;;;;;21.13;12.93;;;10.90;99.90;;;;;;5037686;28;20028;-78
2023/04/07 07:35:19;;;;;;;25.95;15.85;;;11.00;99.90;;;;;;5035500;28;20484;-78
2023/04/07 07:37:44;;;;;;;17.90;10.13;;;11.00;99.90;;;;;;5035701;28;20032;-78
2023/04/07 07:40:10;;;;;;;22.95;13.85;;;11.00;99.90;;;;;;5036302;28;20029;-78
2023/04/07 07:42:36;;;;;;;28.50;19.90;;;11.00;99.90;;;;;;5040382;28;20024;-75
2023/04/07 07:45:02;;;;;;;15.82;10.20;;;11.00;99.90;;;;;;5028665;28;20018;-76
2023/04/07 07:47:28;;;;;;;20.02;11.88;;;11.10;99.90;;;;;;5035848;28;20515;-76
2023/04/07 07:49:54;;;;;;;16.42;10.80;;;11.10;99.90;;;;;;5038837;28;20415;-76
2023/04/07 07:52:20;;;;;;;12.45;7.82;;;11.20;99.90;;;;;;5044402;28;20175;-77
2023/04/07 07:54:46;;;;;;;11.25;5.85;;;11.30;99.90;;;;;;5033869;28;20022;-77
2023/04/07 07:57:12;;;;;;;13.75;8.35;;;11.30;99.90;;;;;;5036739;28;20032;-77
2023/04/07 07:59:39;;;;;;;16.45;9.27;;;11.30;99.90;;;;;;5042398;28;20025;-76
2023/04/07 08:02:05;;;;;;;17.55;8.90;;;11.40;99.90;;;;;;5030099;28;20025;-77
2023/04/07 08:04:35;;;;;;;15.93;7.65;;;11.40;99.90;;;;;;5036477;28;20021;-77
2023/04/07 08:07:01;;;;;;;9.35;6.68;;;11.50;99.90;;;;;;5036192;28;20033;-76
2023/04/07 08:09:27;;;;;;;17.13;13.45;;;11.50;99.90;;;;;;5042208;28;20075;-79
2023/04/07 08:11:53;;;;;;;13.10;8.52;;;11.60;99.90;;;;;;5037379;28;20882;-77
2023/04/07 08:14:19;;;;;;;15.48;7.22;;;11.70;99.90;;;;;;5035949;28;20084;-76
2023/04/07 08:16:45;;;;;;;10.88;5.88;;;11.70;99.90;;;;;;5034348;28;20044;-77
2023/04/07 08:19:12;;;;;;;11.23;6.03;;;11.70;99.90;;;;;;5035811;28;20475;-76
2023/04/07 08:21:38;;;;;;;14.10;6.45;;;11.60;99.90;;;;;;5036023;28;20024;-76
2023/04/07 08:24:04;;;;;;;13.07;7.07;;;11.60;99.90;;;;;;5034287;28;20430;-77
2023/04/07 08:26:30;;;;;;;8.68;4.55;;;11.60;99.90;;;;;;5038460;28;20045;-76
2023/04/07 08:28:55;;;;;;;15.88;7.07;;;11.70;99.90;;;;;;5033650;28;20364;-76
2023/04/07 08:31:21;;;;;;;6.35;3.00;;;11.60;99.90;;;;;;5039217;28;20437;-76
2023/04/07 08:33:47;;;;;;;7.50;2.58;;;11.70;98.80;;;;;;5037545;28;20025;-76
2023/04/07 08:36:12;;;;;;;5.45;2.45;;;11.70;98.10;;;;;;5033716;28;20049;-74
2023/04/07 08:38:38;;;;;;;9.13;3.75;;;11.80;97.70;;;;;;5040069;28;20487;-77
2023/04/07 08:41:16;;;;;;;15.32;5.53;;;11.90;97.90;;;;;;5039084;28;20072;-78
2023/04/07 08:43:45;;;;;;;7.15;2.47;;;12.00;97.90;;;;;;5037594;28;20025;-77
2023/04/07 08:46:13;;;;;;;5.30;2.00;;;12.00;97.50;;;;;;5044142;28;20021;-79
2023/04/07 08:48:42;;;;;;;8.63;2.00;;;12.10;97.10;;;;;;5044151;28;20038;-76
2023/04/07 08:51:09;;;;;;;5.57;1.48;;;12.10;96.90;;;;;;5040906;28;20051;-77
2023/04/07 08:53:49;;;;;;;8.30;1.92;;;12.30;96.60;;;;;;5039407;28;20021;-77
2023/04/07 08:56:20;;;;;;;6.68;2.00;;;12.30;96.40;;;;;;5041987;28;20410;-78
2023/04/07 08:58:47;;;;;;;6.50;1.98;;;12.40;96.20;;;;;;5039299;28;20107;-76
2023/04/07 09:01:14;;;;;;;7.20;2.17;;;12.50;96.00;;;;;;5034427;28;20029;-77
2023/04/07 09:03:43;;;;;;;4.75;1.63;;;12.50;95.90;;;;;;5033987;28;20029;-76
2023/04/07 09:06:10;;;;;;;9.13;2.03;;;12.50;95.80;;;;;;5041883;28;20036;-75
2023/04/07 09:08:35;;;;;;;4.90;1.95;;;12.40;95.90;;;;;;5033894;28;20066;-75
2023/04/07 09:11:02;;;;;;;5.43;1.63;;;12.40;96.10;;;;;;5038413;28;20055;-76
2023/04/07 09:13:27;;;;;;;2.95;1.30;;;12.40;96.10;;;;;;5044706;28;20172;-77
2023/04/07 09:15:53;;;;;;;7.97;2.13;;;12.40;96.10;;;;;;5039215;28;20406;-75
2023/04/07 09:18:19;;;;;;;9.27;2.20;;;12.40;96.00;;;;;;5035962;28;20053;-76
2023/04/07 09:20:58;;;;;;;5.75;1.95;;;12.50;96.20;;;;;;5040875;28;20049;-73
2023/04/07 09:23:28;;;;;;;7.20;4.10;;;12.50;95.80;;;;;;5032676;28;20048;-75
2023/04/07 09:25:53;;;;;;;15.95;6.47;;;12.60;95.80;;;;;;5041876;28;20036;-75
2023/04/07 09:28:19;;;;;;;12.35;7.97;;;12.60;97.00;;;;;;5036208;28;20223;-75
2023/04/07 09:30:53;;;;;;;14.52;7.57;;;12.60;97.40;;;;;;5041209;28;20386;-75
2023/04/07 09:33:26;;;;;;;21.45;14.55;;;12.50;97.70;;;;;;5039925;28;20033;-76
2023/04/07 09:35:52;;;;;;;46.78;30.88;;;12.30;98.00;;;;;;5039770;28;20013;-75
2023/04/07 09:38:18;;;;;;;31.80;24.17;;;12.20;98.40;;;;;;5038260;28;20052;-75
2023/04/07 09:40:44;;;;;;;19.90;9.35;;;12.20;98.80;;;;;;5038741;28;20853;-76
2023/04/07 09:43:15;;;;;;;13.23;7.65;;;12.20;98.80;;;;;;5032419;28;20018;-76
2023/04/07 09:45:41;;;;;;;15.93;7.63;;;12.20;98.90;;;;;;5036962;28;20855;-74
2023/04/07 09:48:18;;;;;;;14.95;7.75;;;12.20;98.80;;;;;;5040687;28;20041;-74
2023/04/07 09:50:48;;;;;;;17.80;8.52;;;12.30;99.10;;;;;;5039122;28;20499;-74
2023/04/07 09:53:18;;;;;;;10.88;6.20;;;12.30;98.90;;;;;;5037417;28;20497;-76
2023/04/07 09:55:45;;;;;;;12.20;6.30;;;12.30;98.80;;;;;;5039499;28;20051;-76
2023/04/07 09:58:15;;;;;;;11.35;5.65;;;12.40;98.80;;;;;;5039475;28;20033;-75
2023/04/07 10:00:41;;;;;;;;;;;12.40;98.70;;;;;;5034619;28;20021;-76
2023/04/07 10:03:07;;;;;;;15.18;7.25;;;12.50;98.60;;;;;;5034164;28;19917;-76
2023/04/07 10:05:35;;;;;;;11.13;6.03;;;12.50;98.40;;;;;;5039022;28;20031;-77
2023/04/07 10:08:01;;;;;;;9.45;4.97;;;12.50;98.30;;;;;;5035435;28;20044;-75
2023/04/07 10:10:27;;;;;;;13.55;6.47;;;12.50;98.10;;;;;;5041755;28;20037;-77
2023/04/07 10:12:56;;;;;;;9.23;5.07;;;12.50;98.20;;;;;;5038314;28;20309;-74
2023/04/07 10:15:22;;;;;;;17.95;7.55;;;12.50;98.20;;;;;;5034827;28;20494;-75
2023/04/07 10:17:48;;;;;;;18.10;7.32;;;12.40;98.30;;;;;;5037276;28;20052;-77
2023/04/07 10:20:17;;;;;;;13.85;6.35;;;12.40;98.20;;;;;;5038400;28;20042;-78
2023/04/07 10:22:45;;;;;;;17.70;7.97;;;12.30;98.20;;;;;;5038652;28;20599;-75
2023/04/07 10:25:15;;;;;;;13.55;7.50;;;12.30;98.30;;;;;;5035683;28;20387;-77
2023/04/07 10:27:49;;;;;;;13.48;6.80;;;12.20;98.20;;;;;;5039824;28;20040;-76
2023/04/07 10:30:22;;;;;;;16.75;6.95;;;12.10;98.60;;;;;;5035748;28;20021;-77
2023/04/07 10:32:52;;;;;;;10.57;5.63;;;12.20;98.50;;;;;;5046198;28;20032;-76
2023/04/07 10:35:21;;;;;;;17.35;5.90;;;12.20;98.50;;;;;;5042572;28;20035;-77
2023/04/07 10:38:12;;;;;;;15.15;5.43;;;12.20;98.40;;;;;;5039592;28;20108;-76
2023/04/07 10:40:39;;;;;;;13.00;6.85;;;12.20;98.60;;;;;;5036761;28;20033;-76
2023/04/07 10:43:10;;;;;;;9.95;4.10;;;12.20;98.50;;;;;;5035516;28;20029;-75
2023/04/07 10:45:45;;;;;;;15.02;6.85;;;12.20;98.10;;;;;;5037427;28;20027;-76
2023/04/07 10:48:13;;;;;;;11.07;5.97;;;12.20;98.30;;;;;;5035199;28;20030;-76
2023/04/07 10:50:39;;;;;;;10.57;5.32;;;12.20;98.40;;;;;;5038242;28;20086;-75
2023/04/07 10:53:13;;;;;;;12.90;5.57;;;12.20;98.30;;;;;;5038131;28;20021;-76
2023/04/07 10:55:45;;;;;;;16.20;6.40;;;12.20;98.10;;;;;;5036216;28;20021;-76
2023/04/07 10:58:23;;;;;;;17.10;7.00;;;12.20;98.10;;;;;;5034160;28;20029;-76
2023/04/07 11:01:10;;;;;;;13.98;6.85;;;12.20;98.50;;;;;;5037892;28;20456;-77
2023/04/07 11:03:38;;;;;;;13.00;6.43;;;12.20;98.60;;;;;;5040139;28;20029;-75
2023/04/07 11:06:08;;;;;;;11.80;6.03;;;12.20;98.70;;;;;;5032542;28;20037;-76
2023/04/07 11:08:36;;;;;;;11.52;5.93;;;12.20;99.10;;;;;;5038721;28;20033;-77
2023/04/07 11:11:07;;;;;;;29.90;13.77;;;12.20;99.30;;;;;;5037890;28;20079;-76
2023/04/07 11:13:53;;;;;;;17.42;7.93;;;12.20;99.60;;;;;;5035252;28;20017;-76
2023/04/07 11:16:41;;;;;;;17.02;7.53;;;12.30;99.90;;;;;;5038083;28;20037;-76
2023/04/07 11:19:07;;;;;;;15.35;7.65;;;12.30;99.80;;;;;;5040243;28;20041;-77
2023/04/07 11:21:32;;;;;;;13.10;8.77;;;12.30;99.70;;;;;;5039155;28;20090;-76
2023/04/07 11:23:58;;;;;;;15.50;9.82;;;12.20;99.70;;;;;;5040500;28;20033;-75
2023/04/07 11:26:24;;;;;;;15.23;7.90;;;12.30;99.90;;;;;;5037437;28;20495;-75
2023/04/07 11:28:52;;;;;;;14.70;6.55;;;12.40;99.90;;;;;;5033288;28;20037;-76
2023/04/07 11:31:35;;;;;;;12.80;7.38;;;12.50;99.50;;;;;;5040686;28;20025;-76
2023/04/07 11:34:06;;;;;;;11.73;5.82;;;12.50;99.40;;;;;;5036397;28;20033;-75
2023/04/07 11:36:39;;;;;;;13.50;7.38;;;12.50;99.30;;;;;;5033711;28;20025;-76
2023/04/07 11:39:16;;;;;;;10.73;5.28;;;12.60;99.20;;;;;;5035373;28;20048;-78
2023/04/07 11:41:47;;;;;;;11.20;5.68;;;12.50;99.00;;;;;;5037529;28;20031;-78
2023/04/07 11:44:13;;;;;;;8.90;4.80;;;12.50;99.10;;;;;;5037198;28;20025;-78
2023/04/07 11:46:56;;;;;;;8.77;4.50;;;12.50;99.30;;;;;;5038794;28;20038;-75
2023/04/07 11:49:23;;;;;;;13.00;5.93;;;12.50;98.90;;;;;;5033235;28;20022;-78
2023/04/07 11:52:02;;;;;;;13.07;6.82;;;12.50;99.00;;;;;;5035629;28;20549;-77
2023/04/07 11:54:51;;;;;;;15.55;6.93;;;12.40;99.30;;;;;;5038348;28;20079;-79
2023/04/07 11:57:25;;;;;;;12.10;7.18;;;12.40;99.40;;;;;;5037040;28;20406;-78
2023/04/07 12:00:04;;;;;;;14.38;7.00;;;12.40;99.60;;;;;;5042326;28;20085;-78
2023/04/07 12:02:33;;;;;;;13.02;6.57;;;12.50;99.60;;;;;;5039857;28;20163;-78
2023/04/07 12:05:00;;;;;;;13.35;7.78;;;12.50;99.50;;;;;;5032491;28;20022;-77
2023/04/07 12:07:26;;;;;;;12.10;6.75;;;12.50;99.80;;;;;;5037016;28;20450;-78
2023/04/07 12:09:53;;;;;;;17.23;7.57;;;12.50;99.90;;;;;;5041168;28;20151;-78
2023/04/07 12:12:46;;;;;;;11.68;7.25;;;12.50;99.90;;;;;;5036070;28;20018;-80
2023/04/07 12:15:13;;;;;;;10.73;5.90;;;12.50;99.60;;;;;;5041774;28;20033;-80
2023/04/07 12:17:47;;;;;;;12.98;6.68;;;12.50;99.40;;;;;;5041944;28;20033;-79
2023/04/07 12:20:15;;;;;;;11.90;8.15;;;12.50;99.50;;;;;;5042585;28;20049;-79
2023/04/07 12:22:41;;;;;;;13.15;8.70;;;12.40;99.50;;;;;;5043607;28;20025;-81
2023/04/07 12:25:07;;;;;;;15.18;8.48;;;12.50;99.90;;;;;;5045297;28;20025;-80
2023/04/07 12:27:33;;;;;;;12.57;5.43;;;12.40;99.90;;;;;;5037131;28;20037;-78
2023/04/07 12:29:58;;;;;;;14.68;7.20;;;12.40;99.70;;;;;;5040850;28;20044;-78
2023/04/07 12:32:24;;;;;;;11.77;7.75;;;12.40;99.70;;;;;;5043240;28;20028;-79
2023/04/07 12:34:50;;;;;;;14.10;8.50;;;12.40;99.80;;;;;;5038009;28;20074;-79
2023/04/07 12:37:16;;;;;;;10.40;5.95;;;12.50;99.90;;;;;;5040899;28;20034;-80